createdAt,value
2018-06-23T00:00:26.927Z,98813.59
2018-06-23T00:01:31.607Z,98820.30
2018-06-23T00:02:36.208Z,98819.92
2018-06-23T00:03:41.197Z,98821.17
2018-06-23T00:04:45.778Z,98822.81
2018-06-23T00:05:50.817Z,98824.06
2018-06-23T00:06:57.940Z,98820.36
2018-06-23T00:08:03.503Z,98823.09
2018-06-23T00:09:09.621Z,98820.14
2018-06-23T00:10:14.340Z,98818.02
2018-06-23T00:11:19.937Z,98820.52
2018-06-23T00:12:25.249Z,98815.02
2018-06-23T00:13:30.487Z,98817.91
2018-06-23T00:14:35.361Z,98817.84
2018-06-23T00:15:40.295Z,98819.54
2018-06-23T00:16:47.344Z,98820.80
2018-06-23T00:17:53.822Z,98815.83
2018-06-23T00:18:59.143Z,98825.48
2018-06-23T00:20:04.182Z,98818.78
2018-06-23T00:21:08.838Z,98824.78
2018-06-23T00:22:14.275Z,98820.20
2018-06-23T00:23:19.398Z,98814.75
2018-06-23T00:24:26.999Z,98813.44
2018-06-23T00:25:37.818Z,98815.62
2018-06-23T00:26:42.510Z,98815.27
2018-06-23T00:27:48.222Z,98809.05
2018-06-23T00:28:53.445Z,98805.72
2018-06-23T00:29:58.324Z,98807.58
2018-06-23T00:31:02.843Z,98808.08
2018-06-23T00:32:08.447Z,98808.84
2018-06-23T00:33:14.378Z,98811.89
2018-06-23T00:34:19.676Z,98810.26
2018-06-23T00:35:25.100Z,98810.04
2018-06-23T00:36:30.526Z,98807.86
2018-06-23T00:37:36.321Z,98808.12
2018-06-23T00:38:41.293Z,98808.19
2018-06-23T00:39:45.947Z,98802.24
2018-06-23T00:40:50.616Z,98803.23
2018-06-23T00:41:55.234Z,98799.08
2018-06-23T00:43:00.828Z,98805.67
2018-06-23T00:44:05.706Z,98804.05
2018-06-23T00:45:10.718Z,98806.34
2018-06-23T00:46:15.386Z,98799.95
2018-06-23T00:47:19.937Z,98806.23
2018-06-23T00:48:24.505Z,98798.70
2018-06-23T00:49:29.069Z,98794.88
2018-06-23T00:50:33.641Z,98794.50
2018-06-23T00:51:39.473Z,98794.50
2018-06-23T00:52:44.755Z,98796.41
2018-06-23T00:53:49.433Z,98798.81
2018-06-23T00:54:54.004Z,98794.61
2018-06-23T00:55:58.587Z,98800.45
2018-06-23T00:57:03.912Z,98799.69
2018-06-23T00:58:08.796Z,98797.99
2018-06-23T00:59:18.499Z,98797.83
2018-06-23T01:00:23.041Z,98795.70
2018-06-23T01:01:27.642Z,98792.97
2018-06-23T01:02:32.180Z,98791.88
2018-06-23T01:03:36.868Z,98793.94
2018-06-23T01:04:41.764Z,98796.51
2018-06-23T01:05:46.293Z,98791.17
2018-06-23T01:06:51.290Z,98795.20
2018-06-23T01:07:56.008Z,98795.06
2018-06-23T01:09:01.288Z,98796.58
2018-06-23T01:10:05.959Z,98801.98
2018-06-23T01:11:11.064Z,98800.72
2018-06-23T01:12:15.630Z,98799.96
2018-06-23T01:13:20.275Z,98802.97
2018-06-23T01:14:27.119Z,98804.11
2018-06-23T01:15:31.771Z,98805.30
2018-06-23T01:16:37.540Z,98796.09
2018-06-23T01:17:42.511Z,98793.95
2018-06-23T01:18:47.819Z,98794.77
2018-06-23T01:19:53.472Z,98797.61
2018-06-23T01:20:58.125Z,98802.19
2018-06-23T01:22:03.939Z,98798.31
2018-06-23T01:23:09.131Z,98797.34
2018-06-23T01:24:17.240Z,98792.70
2018-06-23T01:25:22.672Z,98792.49
2018-06-23T01:26:29.479Z,98794.45
2018-06-23T01:27:34.132Z,98790.37
2018-06-23T01:28:38.811Z,98793.58
2018-06-23T01:29:43.484Z,98792.77
2018-06-23T01:30:48.455Z,98792.32
2018-06-23T01:31:54.981Z,98793.08
2018-06-23T01:32:59.650Z,98794.22
2018-06-23T01:34:04.260Z,98794.98
2018-06-23T01:35:08.936Z,98789.84
2018-06-23T01:36:14.231Z,98790.72
2018-06-23T01:37:19.211Z,98791.92
2018-06-23T01:38:23.898Z,98794.98
2018-06-23T01:39:29.241Z,98793.17
2018-06-23T01:40:34.506Z,98791.48
2018-06-23T01:41:39.137Z,98789.14
2018-06-23T01:42:44.405Z,98792.59
2018-06-23T01:43:49.262Z,98793.34
2018-06-23T01:44:53.761Z,98794.86
2018-06-23T01:45:58.281Z,98794.11
2018-06-23T01:47:03.633Z,98789.47
2018-06-23T01:48:09.019Z,98797.88
2018-06-23T01:49:14.537Z,98796.94
2018-06-23T01:50:19.350Z,98793.55
2018-06-23T01:51:24.802Z,98792.59
2018-06-23T01:52:29.341Z,98788.83
2018-06-23T01:53:33.850Z,98791.83
2018-06-23T01:54:38.405Z,98785.12
2018-06-23T01:55:42.910Z,98786.14
2018-06-23T01:56:48.507Z,98779.31
2018-06-23T01:57:53.023Z,98775.61
2018-06-23T01:58:57.573Z,98778.94
2018-06-23T02:00:02.073Z,98782.50
2018-06-23T02:01:06.675Z,98773.59
2018-06-23T02:02:11.190Z,98775.87
2018-06-23T02:03:15.973Z,98778.12
2018-06-23T02:04:20.495Z,98769.77
2018-06-23T02:05:25.048Z,98766.94
2018-06-23T02:06:29.537Z,98770.97
2018-06-23T02:07:34.058Z,98768.34
2018-06-23T02:08:38.586Z,98768.45
2018-06-23T02:09:43.415Z,98768.70
2018-06-23T02:10:47.933Z,98765.31
2018-06-23T02:11:52.458Z,98766.83
2018-06-23T02:12:57.287Z,98764.69
2018-06-23T02:14:09.797Z,98764.14
2018-06-23T02:15:14.328Z,98765.27
2018-06-23T02:16:25.121Z,98761.80
2018-06-23T02:17:34.607Z,98766.83
2018-06-23T02:19:59.229Z,98769.16
2018-06-23T02:21:08.755Z,98763.31
2018-06-23T02:22:18.423Z,98766.01
2018-06-23T02:23:27.941Z,98765.75
2018-06-23T02:24:38.000Z,98766.68
2018-06-23T02:25:47.473Z,98764.05
2018-06-23T02:26:57.029Z,98761.92
2018-06-23T02:28:07.385Z,98766.33
2018-06-23T02:31:22.968Z,98763.55
2018-06-23T02:32:32.374Z,98764.93
2018-06-23T02:33:41.975Z,98759.41
2018-06-23T02:34:51.566Z,98762.56
2018-06-23T02:35:56.216Z,98763.00
2018-06-23T02:37:00.699Z,98761.37
2018-06-23T02:38:05.510Z,98762.74
2018-06-23T02:39:10.356Z,98761.86
2018-06-23T02:40:15.158Z,98763.38
2018-06-23T02:41:19.748Z,98763.20
2018-06-23T02:42:24.461Z,98767.46
2018-06-23T02:43:29.439Z,98767.46
2018-06-23T02:44:33.957Z,98762.44
2018-06-23T02:45:38.460Z,98770.09
2018-06-23T02:46:43.412Z,98766.88
2018-06-23T02:47:48.277Z,98769.02
2018-06-23T02:48:52.919Z,98768.75
2018-06-23T02:50:00.013Z,98763.17
2018-06-23T02:51:04.658Z,98771.91
2018-06-23T02:52:09.324Z,98771.58
2018-06-23T02:53:15.077Z,98767.27
2018-06-23T02:54:20.755Z,98772.72
2018-06-23T02:55:25.421Z,98771.77
2018-06-23T02:56:30.401Z,98778.50
2018-06-23T02:57:35.073Z,98776.66
2018-06-23T02:58:39.741Z,98776.24
2018-06-23T02:59:45.742Z,98782.28
2018-06-23T03:00:50.358Z,98783.92
2018-06-23T03:01:59.839Z,98783.42
2018-06-23T03:03:04.441Z,98774.72
2018-06-23T03:04:09.685Z,98782.77
2018-06-23T03:05:14.297Z,98781.89
2018-06-23T03:06:19.225Z,98777.43
2018-06-23T03:07:23.917Z,98774.05
2018-06-23T03:08:29.533Z,98781.89
2018-06-23T03:09:34.148Z,98781.45
2018-06-23T03:10:39.368Z,98773.63
2018-06-23T03:11:44.001Z,98772.42
2018-06-23T03:12:49.010Z,98773.89
2018-06-23T03:13:53.626Z,98774.11
2018-06-23T03:14:58.349Z,98779.52
2018-06-23T03:16:02.855Z,98779.78
2018-06-23T03:17:12.204Z,98786.38
2018-06-23T03:18:17.294Z,98781.36
2018-06-23T03:19:22.116Z,98781.75
2018-06-23T03:20:26.615Z,98783.20
2018-06-23T03:21:31.119Z,98783.95
2018-06-23T03:22:35.785Z,98781.17
2018-06-23T03:23:40.683Z,98781.78
2018-06-23T03:24:45.529Z,98789.90
2018-06-23T03:25:50.500Z,98788.42
2018-06-23T03:26:55.168Z,98789.90
2018-06-23T03:27:59.809Z,98784.94
2018-06-23T03:29:04.523Z,98787.39
2018-06-23T03:30:09.534Z,98791.09
2018-06-23T03:31:15.388Z,98787.83
2018-06-23T03:32:21.226Z,98785.27
2018-06-23T03:33:25.724Z,98784.61
2018-06-23T03:34:30.805Z,98791.53
2018-06-23T03:35:35.285Z,98791.86
2018-06-23T03:36:39.789Z,98785.51
2018-06-23T03:37:44.282Z,98786.68
2018-06-23T03:38:49.311Z,98788.20
2018-06-23T03:39:53.862Z,98786.58
2018-06-23T03:40:59.281Z,98788.45
2018-06-23T03:42:03.793Z,98794.72
2018-06-23T03:43:08.350Z,98791.34
2018-06-23T03:44:12.885Z,98780.55
2018-06-23T03:45:17.718Z,98784.62
2018-06-23T03:46:22.237Z,98778.20
2018-06-23T03:47:27.409Z,98784.80
2018-06-23T03:48:31.891Z,98780.66
2018-06-23T03:49:36.394Z,98783.81
2018-06-23T03:50:41.657Z,98786.30
2018-06-23T03:51:47.395Z,98786.76
2018-06-23T03:52:53.051Z,98786.64
2018-06-23T03:53:57.615Z,98787.41
2018-06-23T03:55:02.140Z,98779.34
2018-06-23T03:56:06.754Z,98782.02
2018-06-23T03:57:11.269Z,98784.41
2018-06-23T03:58:16.680Z,98778.80
2018-06-23T03:59:21.193Z,98784.50
2018-06-23T04:00:25.758Z,98779.55
2018-06-23T04:01:30.299Z,98779.67
2018-06-23T04:02:34.776Z,98779.40
2018-06-23T04:03:39.366Z,98777.55
2018-06-23T04:04:44.211Z,98773.61
2018-06-23T04:05:50.242Z,98774.37
2018-06-23T04:06:54.791Z,98776.00
2018-06-23T04:07:59.308Z,98777.64
2018-06-23T04:09:03.948Z,98779.27
2018-06-23T04:10:08.434Z,98773.66
2018-06-23T04:11:13.233Z,98776.11
2018-06-23T04:12:17.714Z,98774.15
2018-06-23T04:13:22.197Z,98782.65
2018-06-23T04:14:26.730Z,98778.45
2018-06-23T04:15:31.229Z,98779.38
2018-06-23T04:16:36.933Z,98781.34
2018-06-23T04:17:41.795Z,98789.19
2018-06-23T04:18:52.289Z,98784.06
2018-06-23T04:19:59.903Z,98785.92
2018-06-23T04:21:05.426Z,98781.72
2018-06-23T04:22:09.962Z,98783.30
2018-06-23T04:23:14.989Z,98782.92
2018-06-23T04:24:20.082Z,98784.45
2018-06-23T04:25:24.605Z,98783.20
2018-06-23T04:26:29.460Z,98787.20
2018-06-23T04:27:34.631Z,98785.52
2018-06-23T04:28:39.170Z,98784.39
2018-06-23T04:29:43.671Z,98787.53
2018-06-23T04:30:48.560Z,98785.08
2018-06-23T04:31:53.123Z,98785.29
2018-06-23T04:32:57.658Z,98782.52
2018-06-23T04:34:02.217Z,98785.73
2018-06-23T04:35:06.804Z,98785.23
2018-06-23T04:36:11.435Z,98780.92
2018-06-23T04:37:17.320Z,98782.94
2018-06-23T04:38:22.621Z,98783.27
2018-06-23T04:39:29.283Z,98782.33
2018-06-23T04:40:33.946Z,98786.97
2018-06-23T04:41:38.881Z,98786.09
2018-06-23T04:42:43.405Z,98788.98
2018-06-23T04:43:48.240Z,98784.27
2018-06-23T04:44:52.736Z,98784.46
2018-06-23T04:45:57.247Z,98786.70
2018-06-23T04:47:01.743Z,98787.34
2018-06-23T04:48:06.284Z,98778.89
2018-06-23T04:49:10.954Z,98781.37
2018-06-23T04:50:15.905Z,98777.64
2018-06-23T04:51:20.585Z,98783.88
2018-06-23T04:52:25.205Z,98778.75
2018-06-23T04:53:29.958Z,98783.66
2018-06-23T04:54:35.268Z,98787.63
2018-06-23T04:55:40.257Z,98784.56
2018-06-23T04:56:45.380Z,98787.95
2018-06-23T04:57:50.114Z,98794.37
2018-06-23T04:58:54.605Z,98783.31
2018-06-23T04:59:59.205Z,98799.89
2018-06-23T05:01:06.380Z,98798.45
2018-06-23T05:02:10.897Z,98795.77
2018-06-23T05:03:17.011Z,98786.87
2018-06-23T05:04:21.593Z,98793.38
2018-06-23T05:05:26.546Z,98790.75
2018-06-23T05:06:31.105Z,98788.05
2018-06-23T05:07:35.671Z,98789.95
2018-06-23T05:08:40.298Z,98793.81
2018-06-23T05:09:45.258Z,98794.96
2018-06-23T05:10:49.794Z,98785.55
2018-06-23T05:11:54.707Z,98793.52
2018-06-23T05:12:59.890Z,98798.55
2018-06-23T05:14:04.441Z,98792.33
2018-06-23T05:15:08.947Z,98801.78
2018-06-23T05:16:13.819Z,98802.66
2018-06-23T05:17:18.326Z,98805.80
2018-06-23T05:18:23.180Z,98804.05
2018-06-23T05:19:27.701Z,98801.09
2018-06-23T05:20:32.229Z,98805.42
2018-06-23T05:21:36.774Z,98806.42
2018-06-23T05:22:41.636Z,98806.89
2018-06-23T05:23:46.194Z,98809.45
2018-06-23T05:24:51.009Z,98810.02
2018-06-23T05:25:55.507Z,98806.89
2018-06-23T05:27:00.043Z,98799.73
2018-06-23T05:28:04.603Z,98806.89
2018-06-23T05:29:09.494Z,98806.64
2018-06-23T05:30:14.020Z,98799.67
2018-06-23T05:31:18.533Z,98805.13
2018-06-23T05:32:23.027Z,98801.30
2018-06-23T05:33:27.585Z,98798.35
2018-06-23T05:34:32.107Z,98800.30
2018-06-23T05:35:36.959Z,98798.52
2018-06-23T05:36:41.484Z,98796.70
2018-06-23T05:37:46.007Z,98808.59
2018-06-23T05:38:51.179Z,98801.50
2018-06-23T05:39:57.173Z,98809.81
2018-06-23T05:41:01.767Z,98815.88
2018-06-23T05:42:07.262Z,98811.79
2018-06-23T05:43:11.765Z,98808.21
2018-06-23T05:44:16.597Z,98803.91
2018-06-23T05:45:21.153Z,98807.88
2018-06-23T05:46:25.703Z,98802.53
2018-06-23T05:47:30.632Z,98803.54
2018-06-23T05:48:36.099Z,98804.55
2018-06-23T05:49:42.196Z,98799.77
2018-06-23T05:50:46.688Z,98801.72
2018-06-23T05:51:51.202Z,98804.42
2018-06-23T05:52:55.863Z,98804.98
2018-06-23T05:54:00.508Z,98805.17
2018-06-23T05:55:05.349Z,98801.84
2018-06-23T05:56:09.968Z,98799.08
2018-06-23T05:57:14.534Z,98802.91
2018-06-23T05:58:19.043Z,98804.29
2018-06-23T05:59:23.568Z,98811.20
2018-06-23T06:00:28.082Z,98812.84
2018-06-23T06:01:33.761Z,98804.92
2018-06-23T06:02:38.258Z,98805.55
2018-06-23T06:03:42.828Z,98808.75
2018-06-23T06:04:47.357Z,98807.44
2018-06-23T06:05:51.914Z,98809.63
2018-06-23T06:06:56.484Z,98810.13
2018-06-23T06:08:01.441Z,98816.59
2018-06-23T06:09:07.342Z,98806.24
2018-06-23T06:10:11.882Z,98795.38
2018-06-23T06:11:16.401Z,98800.09
2018-06-23T06:12:20.920Z,98805.42
2018-06-23T06:13:25.456Z,98805.80
2018-06-23T06:14:30.321Z,98804.92
2018-06-23T06:15:34.838Z,98809.01
2018-06-23T06:17:45.658Z,98811.52
2018-06-23T06:18:50.157Z,98814.66
2018-06-23T06:19:58.666Z,98812.20
2018-06-23T06:21:04.867Z,98808.38
2018-06-23T06:22:09.403Z,98806.48
2018-06-23T06:23:13.935Z,98804.34
2018-06-23T06:24:18.874Z,98803.80
2018-06-23T06:25:23.401Z,98805.24
2018-06-23T06:26:28.097Z,98801.96
2018-06-23T06:27:34.072Z,98801.66
2018-06-23T06:28:39.319Z,98805.98
2018-06-23T06:29:44.179Z,98800.77
2018-06-23T06:30:50.217Z,98809.69
2018-06-23T06:31:56.193Z,98804.41
2018-06-23T06:33:02.798Z,98809.12
2018-06-23T06:34:07.701Z,98811.06
2018-06-23T06:35:12.693Z,98809.56
2018-06-23T06:36:17.451Z,98815.27
2018-06-23T06:37:22.235Z,98811.66
2018-06-23T06:38:27.049Z,98814.34
2018-06-23T06:39:31.801Z,98809.33
2018-06-23T06:40:37.752Z,98811.67
2018-06-23T06:41:42.442Z,98812.39
2018-06-23T06:42:47.785Z,98810.88
2018-06-23T06:43:52.419Z,98807.11
2018-06-23T06:44:57.934Z,98805.78
2018-06-23T06:46:02.726Z,98802.39
2018-06-23T06:47:09.568Z,98806.25
2018-06-23T06:48:14.551Z,98800.89
2018-06-23T06:49:19.606Z,98803.33
2018-06-23T06:50:24.243Z,98805.86
2018-06-23T06:51:29.851Z,98806.47
2018-06-23T06:52:35.289Z,98805.21
2018-06-23T06:53:40.234Z,98805.14
2018-06-23T06:54:45.104Z,98804.06
2018-06-23T06:55:50.328Z,98806.91
2018-06-23T06:56:54.989Z,98811.41
2018-06-23T06:58:00.224Z,98814.87
2018-06-23T06:59:05.774Z,98808.00
2018-06-23T07:00:10.691Z,98810.79
2018-06-23T07:01:15.741Z,98811.13
2018-06-23T07:02:21.127Z,98816.77
2018-06-23T07:03:26.826Z,98815.69
2018-06-23T07:04:31.531Z,98816.12
2018-06-23T07:05:36.185Z,98808.38
2018-06-23T07:06:41.166Z,98807.73
2018-06-23T07:07:45.834Z,98811.54
2018-06-23T07:08:50.560Z,98808.98
2018-06-23T07:09:55.267Z,98806.20
2018-06-23T07:10:59.904Z,98801.30
2018-06-23T07:12:04.541Z,98805.41
2018-06-23T07:13:10.511Z,98798.23
2018-06-23T07:14:15.116Z,98798.88
2018-06-23T07:15:19.916Z,98807.09
2018-06-23T07:16:24.578Z,98813.23
2018-06-23T07:17:29.353Z,98806.91
2018-06-23T07:18:34.020Z,98811.63
2018-06-23T07:19:38.967Z,98817.04
2018-06-23T07:20:43.623Z,98808.16
2018-06-23T07:21:48.292Z,98816.70
2018-06-23T07:22:53.005Z,98814.26
2018-06-23T07:23:57.729Z,98805.59
2018-06-23T07:25:02.458Z,98803.82
2018-06-23T07:26:07.444Z,98807.32
2018-06-23T07:27:12.092Z,98803.78
2018-06-23T07:28:18.166Z,98802.59
2018-06-23T07:29:22.806Z,98809.48
2018-06-23T07:30:28.355Z,98802.75
2018-06-23T07:31:34.332Z,98803.64
2018-06-23T07:32:38.988Z,98801.95
2018-06-23T07:33:43.709Z,98795.48
2018-06-23T07:34:48.414Z,98796.88
2018-06-23T07:35:53.106Z,98795.69
2018-06-23T07:36:57.747Z,98796.30
2018-06-23T07:38:02.444Z,98790.69
2018-06-23T07:39:07.804Z,98793.66
2018-06-23T07:40:13.306Z,98801.12
2018-06-23T07:41:18.341Z,98796.32
2018-06-23T07:42:22.989Z,98788.77
2018-06-23T07:43:27.678Z,98804.03
2018-06-23T07:44:36.130Z,98800.75
2018-06-23T07:45:40.769Z,98798.61
2018-06-23T07:46:45.304Z,98797.36
2018-06-23T07:47:52.866Z,98798.75
2018-06-23T07:48:57.399Z,98794.60
2018-06-23T07:50:02.002Z,98800.62
2018-06-23T07:51:07.408Z,98796.41
2018-06-23T07:52:11.980Z,98796.61
2018-06-23T07:53:17.051Z,98803.41
2018-06-23T07:54:21.906Z,98797.72
2018-06-23T07:55:26.425Z,98803.36
2018-06-23T07:56:30.964Z,98800.61
2018-06-23T07:57:35.525Z,98800.00
2018-06-23T07:58:40.744Z,98793.95
2018-06-23T07:59:45.276Z,98796.51
2018-06-23T08:00:50.128Z,98802.94
2018-06-23T08:01:54.713Z,98795.76
2018-06-23T08:03:00.328Z,98787.30
2018-06-23T08:04:05.780Z,98803.58
2018-06-23T08:05:10.485Z,98794.95
2018-06-23T08:06:16.041Z,98797.77
2018-06-23T08:07:21.342Z,98795.83
2018-06-23T08:08:26.065Z,98796.03
2018-06-23T08:09:30.762Z,98799.98
2018-06-23T08:10:38.460Z,98798.55
2018-06-23T08:11:44.738Z,98798.28
2018-06-23T08:12:51.652Z,98797.05
2018-06-23T08:13:57.239Z,98793.78
2018-06-23T08:15:02.482Z,98790.52
2018-06-23T08:16:09.003Z,98805.72
2018-06-23T08:17:15.404Z,98801.38
2018-06-23T08:18:27.428Z,98794.78
2018-06-23T08:19:34.620Z,98793.01
2018-06-23T08:20:40.601Z,98796.84
2018-06-23T08:21:47.111Z,98798.04
2018-06-23T08:22:53.508Z,98789.75
2018-06-23T08:23:59.209Z,98788.14
2018-06-23T08:25:04.660Z,98787.70
2018-06-23T08:26:09.344Z,98789.20
2018-06-23T08:27:13.978Z,98789.00
2018-06-23T08:28:20.027Z,98798.31
2018-06-23T08:29:33.285Z,98800.31
2018-06-23T08:30:39.817Z,98797.02
2018-06-23T08:31:46.458Z,98801.98
2018-06-23T08:32:53.688Z,98799.36
2018-06-23T08:33:58.741Z,98801.27
2018-06-23T08:35:05.363Z,98795.48
2018-06-23T08:36:14.523Z,98794.84
2018-06-23T08:37:19.452Z,98794.36
2018-06-23T08:38:28.424Z,98807.17
2018-06-23T08:39:33.087Z,98795.45
2018-06-23T08:40:37.773Z,98808.65
2018-06-23T08:41:42.474Z,98797.02
2018-06-23T08:42:48.867Z,98801.30
2018-06-23T08:43:53.503Z,98802.36
2018-06-23T08:45:10.942Z,98801.81
2018-06-23T08:46:19.817Z,98804.56
2018-06-23T08:47:25.373Z,98809.73
2018-06-23T08:48:31.032Z,98811.23
2018-06-23T08:49:35.829Z,98807.12
2018-06-23T08:50:42.937Z,98788.08
2018-06-23T08:51:48.856Z,98799.98
2018-06-23T08:52:53.580Z,98812.25
2018-06-23T08:53:58.133Z,98811.74
2018-06-23T08:55:02.702Z,98808.68
2018-06-23T08:56:07.571Z,98813.58
2018-06-23T08:57:13.023Z,98818.94
2018-06-23T08:58:19.325Z,98812.64
2018-06-23T08:59:24.224Z,98808.39
2018-06-23T09:00:29.446Z,98809.35
2018-06-23T09:01:34.277Z,98811.35
2018-06-23T09:02:39.135Z,98809.95
2018-06-23T09:03:44.352Z,98809.28
2018-06-23T09:04:50.344Z,98816.97
2018-06-23T09:05:56.376Z,98816.30
2018-06-23T09:07:03.929Z,98830.44
2018-06-23T09:08:08.484Z,98821.26
2018-06-23T09:09:16.844Z,98816.22
2018-06-23T09:10:22.645Z,98816.30
2018-06-23T09:11:27.234Z,98823.70
2018-06-23T09:12:32.548Z,98829.42
2018-06-23T09:13:37.266Z,98832.31
2018-06-23T09:14:43.548Z,98836.05
2018-06-23T09:15:48.242Z,98829.94
2018-06-23T09:16:53.639Z,98824.80
2018-06-23T09:17:58.253Z,98824.86
2018-06-23T09:19:03.035Z,98826.16
2018-06-23T09:20:09.433Z,98829.19
2018-06-23T09:21:14.050Z,98828.71
2018-06-23T09:22:18.632Z,98817.52
2018-06-23T09:23:24.692Z,98829.73
2018-06-23T09:24:29.275Z,98822.18
2018-06-23T09:25:33.964Z,98826.35
2018-06-23T09:26:39.464Z,98823.59
2018-06-23T09:27:45.757Z,98824.61
2018-06-23T09:28:50.803Z,98828.98
2018-06-23T09:29:55.667Z,98837.18
2018-06-23T09:31:00.242Z,98833.59
2018-06-23T09:32:04.825Z,98834.98
2018-06-23T09:33:09.406Z,98839.37
2018-06-23T09:34:14.025Z,98840.94
2018-06-23T09:35:19.404Z,98837.67
2018-06-23T09:36:24.904Z,98843.27
2018-06-23T09:37:29.456Z,98836.97
2018-06-23T09:38:34.063Z,98843.98
2018-06-23T09:39:41.689Z,98845.92
2018-06-23T09:40:48.177Z,98851.44
2018-06-23T09:41:53.145Z,98849.92
2018-06-23T09:42:59.173Z,98849.48
2018-06-23T09:44:04.654Z,98848.73
2018-06-23T09:45:09.230Z,98836.52
2018-06-23T09:46:16.148Z,98840.30
2018-06-23T09:47:24.505Z,98840.94
2018-06-23T09:48:29.050Z,98838.40
2018-06-23T09:49:35.806Z,98832.11
2018-06-23T09:50:41.315Z,98834.63
2018-06-23T09:51:47.291Z,98834.53
2018-06-23T09:52:52.585Z,98832.64
2018-06-23T09:53:58.329Z,98835.20
2018-06-23T09:55:04.927Z,98834.42
2018-06-23T09:56:11.929Z,98826.91
2018-06-23T09:57:16.616Z,98828.60
2018-06-23T09:58:23.479Z,98829.22
2018-06-23T09:59:28.518Z,98831.70
2018-06-23T10:00:33.831Z,98829.91
2018-06-23T10:01:40.701Z,98819.66
2018-06-23T10:02:48.607Z,98828.34
2018-06-23T10:03:53.460Z,98828.88
2018-06-23T10:05:02.042Z,98830.85
2018-06-23T10:06:07.239Z,98834.56
2018-06-23T10:07:12.542Z,98823.71
2018-06-23T10:08:17.660Z,98829.41
2018-06-23T10:09:22.662Z,98823.92
2018-06-23T10:10:28.556Z,98822.84
2018-06-23T10:11:33.354Z,98822.08
2018-06-23T10:12:39.584Z,98816.16
2018-06-23T10:13:44.759Z,98813.31
2018-06-23T10:14:50.272Z,98816.32
2018-06-23T10:15:55.242Z,98805.63
2018-06-23T10:17:00.565Z,98802.42
2018-06-23T10:18:05.246Z,98797.68
2018-06-23T10:19:10.482Z,98802.25
2018-06-23T10:20:15.365Z,98804.30
2018-06-23T10:21:21.442Z,98804.83
2018-06-23T10:22:28.966Z,98813.90
2018-06-23T10:23:35.022Z,98808.39
2018-06-23T10:24:39.603Z,98808.17
2018-06-23T10:25:44.141Z,98805.45
2018-06-23T10:26:49.318Z,98801.09
2018-06-23T10:27:53.868Z,98808.08
2018-06-23T10:29:04.347Z,98805.45
2018-06-23T10:30:08.933Z,98803.23
2018-06-23T10:31:13.492Z,98803.77
2018-06-23T10:32:18.074Z,98794.81
2018-06-23T10:33:23.183Z,98800.80
2018-06-23T10:34:28.387Z,98789.98
2018-06-23T10:35:35.137Z,98785.81
2018-06-23T10:36:41.533Z,98782.75
2018-06-23T10:37:46.169Z,98789.26
2018-06-23T10:38:51.243Z,98770.69
2018-06-23T10:39:55.861Z,98776.58
2018-06-23T10:41:00.895Z,98777.64
2018-06-23T10:42:07.590Z,98773.49
2018-06-23T10:43:12.305Z,98793.20
2018-06-23T10:44:19.945Z,98804.77
2018-06-23T10:45:25.587Z,98798.22
2018-06-23T10:46:30.632Z,98796.55
2018-06-23T10:47:35.307Z,98799.50
2018-06-23T10:48:39.976Z,98798.88
2018-06-23T10:49:44.804Z,98796.04
2018-06-23T10:50:50.744Z,98798.69
2018-06-23T10:51:56.287Z,98793.56
2018-06-23T10:53:15.229Z,98798.90
2018-06-23T10:54:20.943Z,98790.20
2018-06-23T10:55:34.738Z,98795.81
2018-06-23T10:56:39.388Z,98788.42
2018-06-23T10:57:44.087Z,98790.19
2018-06-23T10:58:51.041Z,98783.97
2018-06-23T10:59:55.827Z,98792.73
2018-06-23T11:01:01.326Z,98779.39
2018-06-23T11:02:11.848Z,98782.21
2018-06-23T11:03:27.676Z,98785.10
2018-06-23T11:04:34.456Z,98777.02
2018-06-23T11:05:40.365Z,98777.53
2018-06-23T11:06:47.515Z,98776.95
2018-06-23T11:07:55.739Z,98775.06
2018-06-23T11:09:03.477Z,98781.21
2018-06-23T11:10:08.433Z,98774.44
2018-06-23T11:11:14.528Z,98778.44
2018-06-23T11:12:20.408Z,98768.38
2018-06-23T11:13:26.605Z,98770.71
2018-06-23T11:14:32.247Z,98764.42
2018-06-23T11:15:37.488Z,98753.98
2018-06-23T11:16:42.035Z,98742.45
2018-06-23T11:17:46.873Z,98755.73
2018-06-23T11:18:52.750Z,98768.33
2018-06-23T11:19:59.192Z,98768.20
2018-06-23T11:21:04.395Z,98773.63
2018-06-23T11:22:08.992Z,98780.98
2018-06-23T11:23:13.559Z,98771.43
2018-06-23T11:24:18.438Z,98769.07
2018-06-23T11:25:23.051Z,98784.30
2018-06-23T11:26:29.944Z,98776.39
2018-06-23T11:27:34.688Z,98778.66
2018-06-23T11:28:39.664Z,98785.50
2018-06-23T11:29:47.845Z,98772.42
2018-06-23T11:30:53.206Z,98773.33
2018-06-23T11:31:57.999Z,98775.92
2018-06-23T11:33:03.457Z,98777.67
2018-06-23T11:34:09.302Z,98777.72
2018-06-23T11:35:15.358Z,98775.98
2018-06-23T11:36:20.018Z,98770.75
2018-06-23T11:37:25.778Z,98751.99
2018-06-23T11:38:30.504Z,98759.94
2018-06-23T11:39:35.075Z,98758.77
2018-06-23T11:40:39.630Z,98756.13
2018-06-23T11:41:44.538Z,98752.53
2018-06-23T11:42:50.659Z,98759.37
2018-06-23T11:43:55.229Z,98759.45
2018-06-23T11:44:59.732Z,98762.16
2018-06-23T11:46:04.261Z,98754.62
2018-06-23T11:47:08.778Z,98752.05
2018-06-23T11:48:14.183Z,98737.81
2018-06-23T11:49:18.740Z,98755.33
2018-06-23T11:50:24.104Z,98758.73
2018-06-23T11:51:28.725Z,98757.61
2018-06-23T11:52:33.919Z,98748.92
2018-06-23T11:53:38.449Z,98746.02
2018-06-23T11:54:43.326Z,98726.86
2018-06-23T11:55:51.658Z,98741.22
2018-06-23T11:56:56.193Z,98735.44
2018-06-23T11:58:00.748Z,98742.85
2018-06-23T11:59:05.310Z,98742.02
2018-06-23T12:00:10.639Z,98741.33
2018-06-23T12:01:15.174Z,98744.77
2018-06-23T12:02:20.905Z,98734.32
2018-06-23T12:03:32.267Z,98744.19
2018-06-23T12:04:37.312Z,98748.70
2018-06-23T12:05:41.856Z,98746.84
2018-06-23T12:06:48.613Z,98741.80
2018-06-23T12:07:55.549Z,98745.39
2018-06-23T12:09:01.260Z,98748.53
2018-06-23T12:10:05.913Z,98746.75
2018-06-23T12:11:12.329Z,98743.42
2018-06-23T12:12:19.335Z,98747.16
2018-06-23T12:13:25.406Z,98729.22
2018-06-23T12:14:35.706Z,98726.50
2018-06-23T12:15:44.807Z,98722.53
2018-06-23T12:16:51.577Z,98719.87
2018-06-23T12:19:13.299Z,98721.50
2018-06-23T12:20:21.289Z,98717.52
2018-06-23T12:21:30.776Z,98724.96
2018-06-23T12:22:36.497Z,98722.52
2018-06-23T12:23:50.593Z,98728.94
2018-06-23T12:24:59.209Z,98733.88
2018-06-23T12:26:08.498Z,98728.28
2018-06-23T12:27:13.260Z,98730.48
2018-06-23T12:28:19.490Z,98742.63
2018-06-23T12:29:26.997Z,98731.98
2018-06-23T12:30:32.796Z,98743.67
2018-06-23T12:31:39.965Z,98740.95
2018-06-23T12:32:47.255Z,98729.52
2018-06-23T12:33:58.185Z,98717.16
2018-06-23T12:35:07.163Z,98721.66
2018-06-23T12:36:13.197Z,98726.47
2018-06-23T12:37:27.628Z,98724.75
2018-06-23T12:38:44.827Z,98726.33
2018-06-23T12:39:52.463Z,98726.76
2018-06-23T12:40:59.367Z,98727.92
2018-06-23T12:42:05.305Z,98732.31
2018-06-23T12:43:12.075Z,98722.53
2018-06-23T12:44:19.465Z,98731.16
2018-06-23T12:45:26.465Z,98723.67
2018-06-23T12:46:39.034Z,98726.20
2018-06-23T12:47:46.859Z,98732.83
2018-06-23T12:48:53.415Z,98730.78
2018-06-23T12:50:02.303Z,98732.31
2018-06-23T12:51:15.030Z,98735.78
2018-06-23T12:52:24.294Z,98720.75
2018-06-23T12:54:42.289Z,98719.07
2018-06-23T12:55:53.216Z,98711.73
2018-06-23T12:56:59.481Z,98711.41